Capt Amer — 3FCQ3 — position and weather

sailwx.info

Track history (hours):
 
Tides and Currents Weather Stations Pressure Air Temp Water Temp Dewpoint Dewpoint Depression Visibility Wind Speed Wind Dir Waves Ship Positions

Capt Amer

Last reported at 2018-Apr-17 17:04 UTC. Time now 2018-Apr-27 06:42 UTC.
Position N 27°42' W 015°17'.
Warning: this ship's position is 9 days out of date.

Length 113 m; draft 5.1 m.

Type: Cargo ship. MMSI: 373175000.

Date/timePositionNaut miles runAvg speedWind from/ knotsBaromVisibWave heightAir tempDewpointWater temp
2018-Apr-17 17:04N 27°42' W 015°17'1012.3
2018-Apr-17 16:13N 27°52' W 015°13'211.6
2018-Apr-17 16:00N 27°54' W 015°13'612.3
2018-Apr-17 15:30N 27°59' W 015°17'612.0
2018-Apr-17 15:00N 28°04' W 015°21'510.0
2018-Apr-17 14:30N 28°09' W 015°24'1 1.6
2018-Apr-17 13:55N 28°10' W 015°24'0 0.0
2018-Apr-17 13:28N 28°10' W 015°24'0 0.0
2018-Apr-17 12:58N 28°10' W 015°24'0 0.0
2018-Apr-17 12:28N 28°10' W 015°24'0 0.0
2018-Apr-17 11:58N 28°10' W 015°24'0 0.0
2018-Apr-17 11:28N 28°10' W 015°24'0 0.0
2018-Apr-17 10:46N 28°10' W 015°24'0 0.0
2018-Apr-17 10:25N 28°10' W 015°24'0 0.0
2018-Apr-17 09:58N 28°10' W 015°24'0 0.0
2018-Apr-17 09:28N 28°10' W 015°24'0 0.0
2018-Apr-17 08:58N 28°10' W 015°24'0 0.0
2018-Apr-17 08:28N 28°10' W 015°24'0 0.0
2018-Apr-17 07:58N 28°10' W 015°24'0 0.0
2018-Apr-17 07:28N 28°10' W 015°24'0 0.0
2018-Apr-17 06:58N 28°10' W 015°24'0 0.0
2018-Apr-17 06:19N 28°10' W 015°24'0 0.0
2018-Apr-17 05:49N 28°10' W 015°24'0 0.0
2018-Apr-17 05:19N 28°10' W 015°24'0 0.0
2018-Apr-17 04:52N 28°10' W 015°24'0 0.0
2018-Apr-17 04:22N 28°10' W 015°24'0 0.0
2018-Apr-17 03:52N 28°10' W 015°24'0 0.0
2018-Apr-17 03:22N 28°10' W 015°24'0 0.0
2018-Apr-17 02:52N 28°10' W 015°24'0 0.0
2018-Apr-17 02:25N 28°10' W 015°24'0 0.0
2018-Apr-17 01:55N 28°10' W 015°24'0 0.0
2018-Apr-17 01:25N 28°10' W 015°24'0 0.0
2018-Apr-17 00:55N 28°10' W 015°24'0 0.0
2018-Apr-17 00:25N 28°10' W 015°24'0 0.0
2018-Apr-16 23:55N 28°10' W 015°24'0 0.0
2018-Apr-16 23:25N 28°10' W 015°24'0 0.0
2018-Apr-16 22:55N 28°10' W 015°24'0 0.0
2018-Apr-16 22:28N 28°10' W 015°24'0 0.0
2018-Apr-16 21:58N 28°10' W 015°24'0 0.0
2018-Apr-16 21:28N 28°10' W 015°24'0 0.0
2018-Apr-16 20:58N 28°10' W 015°24'0 0.0
2018-Apr-16 20:28N 28°10' W 015°24'0 0.2
2018-Apr-16 20:00N 28°09' W 015°24'1 2.0
2018-Apr-16 19:30N 28°09' W 015°24'1 1.9
2018-Apr-16 19:00N 28°09' W 015°23'1 2.6
2018-Apr-16 18:30N 28°09' W 015°21'1 2.3
2018-Apr-16 18:01N 28°10' W 015°22'611.3
2018-Apr-16 17:30N 28°16' W 015°20'612.3
2018-Apr-16 17:00N 28°21' W 015°17'612.2
2018-Apr-16 16:30N 28°27' W 015°15'  
2018-Apr-10 01:30N 50°01' W 002°42'9211.2
2018-Apr-09 17:17N 50°24' W 000°23'910.5
2018-Apr-09 16:23N 50°27' W 000°09'3 7.7
2018-Apr-09 15:58N 50°28' W 000°04'3 7.0
2018-Apr-09 15:30N 50°29' E 000°01'22 7.3
2018-Apr-09 12:26N 50°35' E 000°34'5 8.2
2018-Apr-09 11:52N 50°38' E 000°40'3 8.5
2018-Apr-09 11:30N 50°39' E 000°44'4 8.6
2018-Apr-09 10:59N 50°41' E 000°50'4 8.7
2018-Apr-09 10:29N 50°44' E 000°56'3210.5
2018-Apr-09 07:23N 51°05' E 001°35'3 8.8
2018-Apr-09 07:01N 51°07' E 001°40'5 9.0
2018-Apr-09 06:30N 51°05' E 001°46'1 1.5
2018-Apr-09 05:39N 51°04' E 001°48'0 0.0
2018-Apr-09 03:54N 51°04' E 001°48'0 0.0
2018-Apr-09 03:30N 51°04' E 001°48'0 0.1
2018-Apr-09 02:48N 51°04' E 001°48'0 0.1
2018-Apr-09 02:24N 51°04' E 001°48'0 0.0
2018-Apr-09 01:48N 51°04' E 001°48'0 0.0
2018-Apr-09 01:27N 51°04' E 001°48'0 0.0
2018-Apr-09 00:51N 51°04' E 001°48'0 0.0
2018-Apr-08 23:57N 51°04' E 001°48'0 0.0
2018-Apr-08 23:30N 51°04' E 001°48'0 0.0
2018-Apr-08 22:57N 51°04' E 001°48'0 0.0
2018-Apr-08 22:27N 51°04' E 001°48'0 0.0
2018-Apr-08 22:00N 51°04' E 001°48'0 0.1
2018-Apr-08 21:24N 51°04' E 001°48'0 0.1
2018-Apr-08 21:00N 51°04' E 001°48'0 0.0
2018-Apr-08 15:12N 51°04' E 001°48'0 0.1
2018-Apr-08 15:00N 51°04' E 001°48'0 0.1
2018-Apr-08 14:24N 51°04' E 001°48'0 0.0
2018-Apr-08 13:57N 51°04' E 001°48'0 0.0
2018-Apr-08 13:30N 51°04' E 001°48'0 0.0
2018-Apr-08 12:39N 51°04' E 001°48'0 0.0
2018-Apr-08 12:27N 51°04' E 001°48'0 0.0
2018-Apr-08 11:57N 51°04' E 001°48'0 0.0
2018-Apr-08 11:30N 51°04' E 001°48'0 0.1
2018-Apr-08 10:48N 51°04' E 001°48'0 0.0
2018-Apr-08 10:30N 51°04' E 001°48'0 0.0
2018-Apr-08 10:00N 51°04' E 001°48'0 0.0
2018-Apr-08 04:36N 51°04' E 001°48'0 0.0
2018-Apr-08 04:24N 51°04' E 001°48'0 0.0
2018-Apr-08 02:15N 51°04' E 001°48'0 0.2
2018-Apr-08 01:54N 51°04' E 001°48'0 0.1
2018-Apr-08 01:18N 51°04' E 001°48'0 0.0
2018-Apr-08 00:54N 51°04' E 001°48'0 0.0
2018-Apr-08 00:18N 51°04' E 001°48'0 0.0
2018-Apr-07 23:54N 51°04' E 001°48'0 0.0
2018-Apr-07 23:30N 51°04' E 001°48'0 0.0
2018-Apr-07 22:33N 51°04' E 001°48'0 0.1
2018-Apr-07 22:21N 51°04' E 001°48'0 0.1
2018-Apr-07 21:57N 51°04' E 001°48'0 0.1
2018-Apr-07 21:27N 51°04' E 001°48'0 0.3
2018-Apr-07 21:00N 51°04' E 001°48'  
Track history (hours):
 
Tides and Currents Weather Stations Pressure Air Temp Water Temp Dewpoint Dewpoint Depression Visibility Wind Speed Wind Dir Waves Ship Positions

Capt Amer

Last reported at 2018-Apr-17 17:04 UTC. Time now 2018-Apr-27 06:42 UTC.
Position N 27°42' W 015°17'.
Warning: this ship's position is 9 days out of date.

Length 113 m; draft 5.1 m.

Type: Cargo ship. MMSI: 373175000.

Date/timePositionNaut miles runAvg speedWind from/ knotsBaromVisibWave heightAir tempDewpointWater temp
2018-Apr-17 17:04N 27°42' W 015°17'1012.3
2018-Apr-17 16:13N 27°52' W 015°13'211.6
2018-Apr-17 16:00N 27°54' W 015°13'612.3
2018-Apr-17 15:30N 27°59' W 015°17'612.0
2018-Apr-17 15:00N 28°04' W 015°21'510.0
2018-Apr-17 14:30N 28°09' W 015°24'1 1.6
2018-Apr-17 13:55N 28°10' W 015°24'0 0.0
2018-Apr-17 13:28N 28°10' W 015°24'0 0.0
2018-Apr-17 12:58N 28°10' W 015°24'0 0.0
2018-Apr-17 12:28N 28°10' W 015°24'0 0.0
2018-Apr-17 11:58N 28°10' W 015°24'0 0.0
2018-Apr-17 11:28N 28°10' W 015°24'0 0.0
2018-Apr-17 10:46N 28°10' W 015°24'0 0.0
2018-Apr-17 10:25N 28°10' W 015°24'0 0.0
2018-Apr-17 09:58N 28°10' W 015°24'0 0.0
2018-Apr-17 09:28N 28°10' W 015°24'0 0.0
2018-Apr-17 08:58N 28°10' W 015°24'0 0.0
2018-Apr-17 08:28N 28°10' W 015°24'0 0.0
2018-Apr-17 07:58N 28°10' W 015°24'0 0.0
2018-Apr-17 07:28N 28°10' W 015°24'0 0.0
2018-Apr-17 06:58N 28°10' W 015°24'0 0.0
2018-Apr-17 06:19N 28°10' W 015°24'0 0.0
2018-Apr-17 05:49N 28°10' W 015°24'0 0.0
2018-Apr-17 05:19N 28°10' W 015°24'0 0.0
2018-Apr-17 04:52N 28°10' W 015°24'0 0.0
2018-Apr-17 04:22N 28°10' W 015°24'0 0.0
2018-Apr-17 03:52N 28°10' W 015°24'0 0.0
2018-Apr-17 03:22N 28°10' W 015°24'0 0.0
2018-Apr-17 02:52N 28°10' W 015°24'0 0.0
2018-Apr-17 02:25N 28°10' W 015°24'0 0.0
2018-Apr-17 01:55N 28°10' W 015°24'0 0.0
2018-Apr-17 01:25N 28°10' W 015°24'0 0.0
2018-Apr-17 00:55N 28°10' W 015°24'0 0.0
2018-Apr-17 00:25N 28°10' W 015°24'0 0.0
2018-Apr-16 23:55N 28°10' W 015°24'0 0.0
2018-Apr-16 23:25N 28°10' W 015°24'0 0.0
2018-Apr-16 22:55N 28°10' W 015°24'0 0.0
2018-Apr-16 22:28N 28°10' W 015°24'0 0.0
2018-Apr-16 21:58N 28°10' W 015°24'0 0.0
2018-Apr-16 21:28N 28°10' W 015°24'0 0.0
2018-Apr-16 20:58N 28°10' W 015°24'0 0.0
2018-Apr-16 20:28N 28°10' W 015°24'0 0.2
2018-Apr-16 20:00N 28°09' W 015°24'1 2.0
2018-Apr-16 19:30N 28°09' W 015°24'1 1.9
2018-Apr-16 19:00N 28°09' W 015°23'1 2.6
2018-Apr-16 18:30N 28°09' W 015°21'1 2.3
2018-Apr-16 18:01N 28°10' W 015°22'611.3
2018-Apr-16 17:30N 28°16' W 015°20'612.3
2018-Apr-16 17:00N 28°21' W 015°17'612.2
2018-Apr-16 16:30N 28°27' W 015°15'  
2018-Apr-10 01:30N 50°01' W 002°42'9211.2
2018-Apr-09 17:17N 50°24' W 000°23'910.5
2018-Apr-09 16:23N 50°27' W 000°09'3 7.7
2018-Apr-09 15:58N 50°28' W 000°04'3 7.0
2018-Apr-09 15:30N 50°29' E 000°01'22 7.3
2018-Apr-09 12:26N 50°35' E 000°34'5 8.2
2018-Apr-09 11:52N 50°38' E 000°40'3 8.5
2018-Apr-09 11:30N 50°39' E 000°44'4 8.6
2018-Apr-09 10:59N 50°41' E 000°50'4 8.7
2018-Apr-09 10:29N 50°44' E 000°56'3210.5
2018-Apr-09 07:23N 51°05' E 001°35'3 8.8
2018-Apr-09 07:01N 51°07' E 001°40'5 9.0
2018-Apr-09 06:30N 51°05' E 001°46'1 1.5
2018-Apr-09 05:39N 51°04' E 001°48'0 0.0
2018-Apr-09 03:54N 51°04' E 001°48'0 0.0
2018-Apr-09 03:30N 51°04' E 001°48'0 0.1
2018-Apr-09 02:48N 51°04' E 001°48'0 0.1
2018-Apr-09 02:24N 51°04' E 001°48'0 0.0
2018-Apr-09 01:48N 51°04' E 001°48'0 0.0
2018-Apr-09 01:27N 51°04' E 001°48'0 0.0
2018-Apr-09 00:51N 51°04' E 001°48'0 0.0
2018-Apr-08 23:57N 51°04' E 001°48'0 0.0
2018-Apr-08 23:30N 51°04' E 001°48'0 0.0
2018-Apr-08 22:57N 51°04' E 001°48'0 0.0
2018-Apr-08 22:27N 51°04' E 001°48'0 0.0
2018-Apr-08 22:00N 51°04' E 001°48'0 0.1
2018-Apr-08 21:24N 51°04' E 001°48'0 0.1
2018-Apr-08 21:00N 51°04' E 001°48'0 0.0
2018-Apr-08 15:12N 51°04' E 001°48'0 0.1
2018-Apr-08 15:00N 51°04' E 001°48'0 0.1
2018-Apr-08 14:24N 51°04' E 001°48'0 0.0
2018-Apr-08 13:57N 51°04' E 001°48'0 0.0
2018-Apr-08 13:30N 51°04' E 001°48'0 0.0
2018-Apr-08 12:39N 51°04' E 001°48'0 0.0
2018-Apr-08 12:27N 51°04' E 001°48'0 0.0
2018-Apr-08 11:57N 51°04' E 001°48'0 0.0
2018-Apr-08 11:30N 51°04' E 001°48'0 0.1
2018-Apr-08 10:48N 51°04' E 001°48'0 0.0
2018-Apr-08 10:30N 51°04' E 001°48'0 0.0
2018-Apr-08 10:00N 51°04' E 001°48'0 0.0
2018-Apr-08 04:36N 51°04' E 001°48'0 0.0
2018-Apr-08 04:24N 51°04' E 001°48'0 0.0
2018-Apr-08 02:15N 51°04' E 001°48'0 0.2
2018-Apr-08 01:54N 51°04' E 001°48'0 0.1
2018-Apr-08 01:18N 51°04' E 001°48'0 0.0
2018-Apr-08 00:54N 51°04' E 001°48'0 0.0
2018-Apr-08 00:18N 51°04' E 001°48'0 0.0
2018-Apr-07 23:54N 51°04' E 001°48'0 0.0
2018-Apr-07 23:30N 51°04' E 001°48'0 0.0
2018-Apr-07 22:33N 51°04' E 001°48'0 0.1
2018-Apr-07 22:21N 51°04' E 001°48'0 0.1
2018-Apr-07 21:57N 51°04' E 001°48'0 0.1
2018-Apr-07 21:27N 51°04' E 001°48'0 0.3
2018-Apr-07 21:00N 51°04' E 001°48'  

Dump ship's entire track history